Angus, New Mexico
Current Conditions -  °F | °C
As of 7:55 AM on Sunday 21 Dec 2014 (Local Time) from KSRR Reporting Station
Clear Clear  
Wind Chill: 28°   Ceiling: Unl
Heat Index: 37°   Visibility: 10mi
Dew Point: 19°   Wind: 16mph
Humidity: 48%   Direction: 310°NW
Pressure: 30.01"   Gusts: 21mph
Location:  33.7233°N, 105.25°W
Report Text: KSRR 211455Z AUTO 31014G18KT 10SM CLR 03/M07 A3001 RMK AO2
Loading
Personal Weather Stations






























Interactive Weather Map New forecast layout! Learn more

10-Day Weather Forecast

Advertisements
Track Severe Weather on mobile